sensor_id;sensor_type;location;lat;lon;timestamp;P1;durP1;ratioP1;P2;durP2;ratioP2
3016;SDS011;1518;52.408;13.060;2023-02-27T00:02:11;2.40;;;2.03;;
3016;SDS011;1518;52.408;13.060;2023-02-27T00:04:59;4.03;;;1.90;;
3016;SDS011;1518;52.408;13.060;2023-02-27T00:07:49;2.00;;;1.60;;
3016;SDS011;1518;52.408;13.060;2023-02-27T00:10:37;2.10;;;1.90;;
3016;SDS011;1518;52.408;13.060;2023-02-27T00:13:25;2.20;;;1.70;;
3016;SDS011;1518;52.408;13.060;2023-02-27T00:16:13;2.20;;;2.00;;
3016;SDS011;1518;52.408;13.060;2023-02-27T00:19:01;1.50;;;1.40;;
3016;SDS011;1518;52.408;13.060;2023-02-27T00:21:50;1.50;;;1.40;;
3016;SDS011;1518;52.408;13.060;2023-02-27T00:24:39;1.40;;;1.30;;
3016;SDS011;1518;52.408;13.060;2023-02-27T00:27:27;2.40;;;1.80;;
3016;SDS011;1518;52.408;13.060;2023-02-27T00:30:15;3.23;;;1.50;;
3016;SDS011;1518;52.408;13.060;2023-02-27T00:33:04;2.17;;;1.63;;
3016;SDS011;1518;52.408;13.060;2023-02-27T00:35:55;2.17;;;1.97;;
3016;SDS011;1518;52.408;13.060;2023-02-27T00:38:44;2.30;;;2.07;;
3016;SDS011;1518;52.408;13.060;2023-02-27T00:41:33;2.20;;;1.90;;
3016;SDS011;1518;52.408;13.060;2023-02-27T00:44:21;2.43;;;2.10;;
3016;SDS011;1518;52.408;13.060;2023-02-27T00:47:09;2.23;;;1.90;;
3016;SDS011;1518;52.408;13.060;2023-02-27T00:49:57;2.43;;;1.90;;
3016;SDS011;1518;52.408;13.060;2023-02-27T00:52:45;2.50;;;1.70;;
3016;SDS011;1518;52.408;13.060;2023-02-27T00:55:33;3.00;;;1.93;;
3016;SDS011;1518;52.408;13.060;2023-02-27T00:58:22;2.30;;;1.70;;
3016;SDS011;1518;52.408;13.060;2023-02-27T01:01:10;1.70;;;1.60;;
3016;SDS011;1518;52.408;13.060;2023-02-27T01:03:58;2.10;;;1.67;;
3016;SDS011;1518;52.408;13.060;2023-02-27T01:06:47;1.40;;;1.30;;
3016;SDS011;1518;52.408;13.060;2023-02-27T01:09:35;1.80;;;1.70;;
3016;SDS011;1518;52.408;13.060;2023-02-27T01:12:23;2.30;;;1.80;;
3016;SDS011;1518;52.408;13.060;2023-02-27T01:15:12;4.73;;;1.60;;
3016;SDS011;1518;52.408;13.060;2023-02-27T01:18:00;1.70;;;1.40;;
3016;SDS011;1518;52.408;13.060;2023-02-27T01:20:50;1.90;;;1.63;;
3016;SDS011;1518;52.408;13.060;2023-02-27T01:23:39;1.87;;;1.40;;
3016;SDS011;1518;52.408;13.060;2023-02-27T01:26:27;2.03;;;1.50;;
3016;SDS011;1518;52.408;13.060;2023-02-27T01:29:15;1.83;;;1.73;;
3016;SDS011;1518;52.408;13.060;2023-02-27T01:32:04;2.03;;;1.93;;
3016;SDS011;1518;52.408;13.060;2023-02-27T01:34:52;2.40;;;1.57;;
3016;SDS011;1518;52.408;13.060;2023-02-27T01:37:40;2.53;;;2.33;;
3016;SDS011;1518;52.408;13.060;2023-02-27T01:40:28;2.50;;;1.67;;
3016;SDS011;1518;52.408;13.060;2023-02-27T01:43:17;3.50;;;1.53;;
3016;SDS011;1518;52.408;13.060;2023-02-27T01:46:07;2.07;;;1.87;;
3016;SDS011;1518;52.408;13.060;2023-02-27T01:48:57;2.10;;;1.73;;
3016;SDS011;1518;52.408;13.060;2023-02-27T01:51:49;3.57;;;1.93;;
3016;SDS011;1518;52.408;13.060;2023-02-27T01:54:40;4.10;;;2.17;;
3016;SDS011;1518;52.408;13.060;2023-02-27T01:57:28;6.47;;;2.30;;
3016;SDS011;1518;52.408;13.060;2023-02-27T02:00:17;2.33;;;2.23;;
3016;SDS011;1518;52.408;13.060;2023-02-27T02:03:08;2.60;;;1.50;;
3016;SDS011;1518;52.408;13.060;2023-02-27T02:06:03;3.10;;;1.70;;
3016;SDS011;1518;52.408;13.060;2023-02-27T02:08:52;3.00;;;1.77;;
3016;SDS011;1518;52.408;13.060;2023-02-27T02:11:42;1.90;;;1.80;;
3016;SDS011;1518;52.408;13.060;2023-02-27T02:14:31;1.70;;;1.60;;
3016;SDS011;1518;52.408;13.060;2023-02-27T02:17:21;3.10;;;2.03;;
3016;SDS011;1518;52.408;13.060;2023-02-27T02:27:10;2.20;;;1.50;;
3016;SDS011;1518;52.408;13.060;2023-02-27T02:30:24;1.93;;;1.73;;
3016;SDS011;1518;52.408;13.060;2023-02-27T02:33:39;2.13;;;1.50;;
3016;SDS011;1518;52.408;13.060;2023-02-27T02:37:15;1.60;;;1.50;;
3016;SDS011;1518;52.408;13.060;2023-02-27T02:40:35;1.50;;;1.40;;
3016;SDS011;1518;52.408;13.060;2023-02-27T02:43:28;2.10;;;1.80;;
3016;SDS011;1518;52.408;13.060;2023-02-27T02:46:24;1.70;;;1.50;;
3016;SDS011;1518;52.408;13.060;2023-02-27T02:49:20;1.60;;;1.50;;
3016;SDS011;1518;52.408;13.060;2023-02-27T02:52:16;2.10;;;1.80;;
3016;SDS011;1518;52.408;13.060;2023-02-27T02:55:10;1.50;;;1.40;;
3016;SDS011;1518;52.408;13.060;2023-02-27T02:58:05;2.03;;;1.50;;
3016;SDS011;1518;52.408;13.060;2023-02-27T03:01:00;1.70;;;1.60;;
3016;SDS011;1518;52.408;13.060;2023-02-27T03:03:56;1.73;;;1.60;;
3016;SDS011;1518;52.408;13.060;2023-02-27T03:06:50;1.63;;;1.40;;
3016;SDS011;1518;52.408;13.060;2023-02-27T03:09:42;1.50;;;1.40;;
3016;SDS011;1518;52.408;13.060;2023-02-27T03:12:32;1.80;;;1.63;;
3016;SDS011;1518;52.408;13.060;2023-02-27T03:15:27;1.60;;;1.50;;
3016;SDS011;1518;52.408;13.060;2023-02-27T03:18:20;1.73;;;1.60;;
3016;SDS011;1518;52.408;13.060;2023-02-27T03:21:12;2.07;;;1.87;;
3016;SDS011;1518;52.408;13.060;2023-02-27T03:24:05;1.50;;;1.33;;
3016;SDS011;1518;52.408;13.060;2023-02-27T03:26:57;1.53;;;1.43;;
3016;SDS011;1518;52.408;13.060;2023-02-27T03:29:49;2.00;;;1.80;;
3016;SDS011;1518;52.408;13.060;2023-02-27T03:32:43;1.70;;;1.43;;
3016;SDS011;1518;52.408;13.060;2023-02-27T03:35:39;2.17;;;1.53;;
3016;SDS011;1518;52.408;13.060;2023-02-27T03:38:33;2.53;;;1.70;;
3016;SDS011;1518;52.408;13.060;2023-02-27T03:41:26;2.00;;;1.40;;
3016;SDS011;1518;52.408;13.060;2023-02-27T03:44:20;3.50;;;1.90;;
3016;SDS011;1518;52.408;13.060;2023-02-27T03:47:15;1.40;;;1.30;;
3016;SDS011;1518;52.408;13.060;2023-02-27T03:50:05;2.47;;;1.70;;
3016;SDS011;1518;52.408;13.060;2023-02-27T03:52:54;1.97;;;1.50;;
3016;SDS011;1518;52.408;13.060;2023-02-27T03:55:43;1.73;;;1.33;;
3016;SDS011;1518;52.408;13.060;2023-02-27T03:58:32;3.90;;;1.63;;
3016;SDS011;1518;52.408;13.060;2023-02-27T04:01:21;1.63;;;1.30;;
3016;SDS011;1518;52.408;13.060;2023-02-27T04:04:12;1.67;;;1.53;;
3016;SDS011;1518;52.408;13.060;2023-02-27T04:07:04;1.63;;;1.20;;
3016;SDS011;1518;52.408;13.060;2023-02-27T04:10:16;1.83;;;1.20;;
3016;SDS011;1518;52.408;13.060;2023-02-27T04:19:40;1.47;;;1.27;;
3016;SDS011;1518;52.408;13.060;2023-02-27T04:22:43;1.37;;;1.27;;
3016;SDS011;1518;52.408;13.060;2023-02-27T04:25:42;1.23;;;1.13;;
3016;SDS011;1518;52.408;13.060;2023-02-27T04:28:39;3.00;;;1.67;;
3016;SDS011;1518;52.408;13.060;2023-02-27T04:31:31;1.60;;;1.50;;
3016;SDS011;1518;52.408;13.060;2023-02-27T04:34:28;3.43;;;1.33;;
3016;SDS011;1518;52.408;13.060;2023-02-27T04:37:23;1.67;;;1.30;;
3016;SDS011;1518;52.408;13.060;2023-02-27T04:40:18;1.50;;;1.40;;
3016;SDS011;1518;52.408;13.060;2023-02-27T04:43:10;1.90;;;1.40;;
3016;SDS011;1518;52.408;13.060;2023-02-27T04:46:01;1.77;;;1.10;;
3016;SDS011;1518;52.408;13.060;2023-02-27T04:48:53;1.90;;;1.40;;
3016;SDS011;1518;52.408;13.060;2023-02-27T04:51:46;1.30;;;1.20;;
3016;SDS011;1518;52.408;13.060;2023-02-27T04:54:39;1.47;;;1.37;;
3016;SDS011;1518;52.408;13.060;2023-02-27T04:57:33;1.63;;;1.53;;
3016;SDS011;1518;52.408;13.060;2023-02-27T05:00:26;1.60;;;1.50;;
3016;SDS011;1518;52.408;13.060;2023-02-27T05:03:18;3.20;;;1.40;;
3016;SDS011;1518;52.408;13.060;2023-02-27T05:06:09;2.07;;;1.40;;
3016;SDS011;1518;52.408;13.060;2023-02-27T05:09:00;2.27;;;1.40;;
3016;SDS011;1518;52.408;13.060;2023-02-27T05:11:54;3.23;;;1.40;;
3016;SDS011;1518;52.408;13.060;2023-02-27T05:14:48;4.20;;;1.50;;
3016;SDS011;1518;52.408;13.060;2023-02-27T05:17:41;1.63;;;1.47;;
3016;SDS011;1518;52.408;13.060;2023-02-27T05:20:35;1.37;;;1.27;;
3016;SDS011;1518;52.408;13.060;2023-02-27T05:23:35;1.30;;;1.20;;
3016;SDS011;1518;52.408;13.060;2023-02-27T05:26:32;1.70;;;1.60;;
3016;SDS011;1518;52.408;13.060;2023-02-27T05:29:28;1.30;;;1.20;;
3016;SDS011;1518;52.408;13.060;2023-02-27T05:32:26;1.73;;;1.30;;
3016;SDS011;1518;52.408;13.060;2023-02-27T05:35:22;2.47;;;1.73;;
3016;SDS011;1518;52.408;13.060;2023-02-27T05:38:16;1.50;;;1.40;;
3016;SDS011;1518;52.408;13.060;2023-02-27T05:41:13;1.50;;;1.30;;
3016;SDS011;1518;52.408;13.060;2023-02-27T05:44:05;1.93;;;1.53;;
3016;SDS011;1518;52.408;13.060;2023-02-27T05:46:58;1.40;;;1.20;;
3016;SDS011;1518;52.408;13.060;2023-02-27T05:49:53;1.43;;;1.33;;
3016;SDS011;1518;52.408;13.060;2023-02-27T05:52:45;1.50;;;1.40;;
3016;SDS011;1518;52.408;13.060;2023-02-27T05:55:36;3.63;;;2.27;;
3016;SDS011;1518;52.408;13.060;2023-02-27T05:58:27;1.93;;;1.70;;
3016;SDS011;1518;52.408;13.060;2023-02-27T06:01:19;1.70;;;1.60;;
3016;SDS011;1518;52.408;13.060;2023-02-27T06:04:07;1.30;;;1.20;;
3016;SDS011;1518;52.408;13.060;2023-02-27T06:06:56;2.40;;;1.50;;
3016;SDS011;1518;52.408;13.060;2023-02-27T06:09:44;2.20;;;1.60;;
3016;SDS011;1518;52.408;13.060;2023-02-27T06:12:33;1.50;;;1.40;;
3016;SDS011;1518;52.408;13.060;2023-02-27T06:15:21;2.30;;;1.20;;
3016;SDS011;1518;52.408;13.060;2023-02-27T06:18:09;1.87;;;1.40;;
3016;SDS011;1518;52.408;13.060;2023-02-27T06:20:58;2.80;;;1.80;;
3016;SDS011;1518;52.408;13.060;2023-02-27T06:23:48;3.30;;;1.87;;
3016;SDS011;1518;52.408;13.060;2023-02-27T06:26:36;1.53;;;1.43;;
3016;SDS011;1518;52.408;13.060;2023-02-27T06:29:24;1.77;;;1.63;;
3016;SDS011;1518;52.408;13.060;2023-02-27T06:32:12;1.70;;;1.60;;
3016;SDS011;1518;52.408;13.060;2023-02-27T06:35:00;1.90;;;1.50;;
3016;SDS011;1518;52.408;13.060;2023-02-27T06:37:48;1.20;;;1.10;;
3016;SDS011;1518;52.408;13.060;2023-02-27T06:40:37;1.50;;;1.40;;
3016;SDS011;1518;52.408;13.060;2023-02-27T06:43:25;2.73;;;1.40;;
3016;SDS011;1518;52.408;13.060;2023-02-27T06:46:14;2.63;;;2.27;;
3016;SDS011;1518;52.408;13.060;2023-02-27T06:49:02;4.30;;;3.20;;
3016;SDS011;1518;52.408;13.060;2023-02-27T06:51:50;3.13;;;2.23;;
3016;SDS011;1518;52.408;13.060;2023-02-27T06:54:39;4.80;;;2.63;;
3016;SDS011;1518;52.408;13.060;2023-02-27T06:57:28;5.30;;;1.83;;
3016;SDS011;1518;52.408;13.060;2023-02-27T07:00:22;1.60;;;1.37;;
3016;SDS011;1518;52.408;13.060;2023-02-27T07:03:11;2.47;;;1.57;;
3016;SDS011;1518;52.408;13.060;2023-02-27T07:06:00;1.90;;;1.80;;
3016;SDS011;1518;52.408;13.060;2023-02-27T07:08:48;1.53;;;1.43;;
3016;SDS011;1518;52.408;13.060;2023-02-27T07:11:52;1.67;;;1.57;;
3016;SDS011;1518;52.408;13.060;2023-02-27T07:14:41;2.27;;;2.07;;
3016;SDS011;1518;52.408;13.060;2023-02-27T07:17:29;1.67;;;1.57;;
3016;SDS011;1518;52.408;13.060;2023-02-27T07:20:18;3.80;;;1.97;;
3016;SDS011;1518;52.408;13.060;2023-02-27T07:23:06;2.70;;;1.40;;
3016;SDS011;1518;52.408;13.060;2023-02-27T07:25:56;1.40;;;1.30;;
3016;SDS011;1518;52.408;13.060;2023-02-27T07:28:44;3.33;;;2.13;;
3016;SDS011;1518;52.408;13.060;2023-02-27T07:31:33;11.07;;;3.30;;
3016;SDS011;1518;52.408;13.060;2023-02-27T07:34:21;2.13;;;1.87;;
3016;SDS011;1518;52.408;13.060;2023-02-27T07:37:09;2.70;;;1.60;;
3016;SDS011;1518;52.408;13.060;2023-02-27T07:39:58;1.70;;;1.53;;
3016;SDS011;1518;52.408;13.060;2023-02-27T07:42:46;2.60;;;2.40;;
3016;SDS011;1518;52.408;13.060;2023-02-27T07:45:37;2.03;;;1.70;;
3016;SDS011;1518;52.408;13.060;2023-02-27T07:48:26;2.87;;;2.07;;
3016;SDS011;1518;52.408;13.060;2023-02-27T07:51:15;4.40;;;1.97;;
3016;SDS011;1518;52.408;13.060;2023-02-27T07:54:03;2.60;;;1.97;;
3016;SDS011;1518;52.408;13.060;2023-02-27T07:56:51;1.83;;;1.67;;
3016;SDS011;1518;52.408;13.060;2023-02-27T07:59:39;6.37;;;4.67;;
3016;SDS011;1518;52.408;13.060;2023-02-27T08:02:27;12.40;;;5.50;;
3016;SDS011;1518;52.408;13.060;2023-02-27T08:05:17;9.40;;;3.70;;
3016;SDS011;1518;52.408;13.060;2023-02-27T08:08:05;7.83;;;3.23;;
3016;SDS011;1518;52.408;13.060;2023-02-27T08:10:53;5.80;;;2.10;;
3016;SDS011;1518;52.408;13.060;2023-02-27T08:13:41;7.93;;;2.87;;
3016;SDS011;1518;52.408;13.060;2023-02-27T08:16:47;4.20;;;1.70;;
3016;SDS011;1518;52.408;13.060;2023-02-27T08:19:35;3.00;;;1.63;;
3016;SDS011;1518;52.408;13.060;2023-02-27T08:22:25;5.53;;;2.23;;
3016;SDS011;1518;52.408;13.060;2023-02-27T08:25:14;2.97;;;1.87;;
3016;SDS011;1518;52.408;13.060;2023-02-27T08:28:03;2.60;;;1.93;;
3016;SDS011;1518;52.408;13.060;2023-02-27T08:30:51;2.07;;;1.73;;
3016;SDS011;1518;52.408;13.060;2023-02-27T08:33:40;2.17;;;1.40;;
3016;SDS011;1518;52.408;13.060;2023-02-27T08:36:28;2.47;;;1.40;;
3016;SDS011;1518;52.408;13.060;2023-02-27T08:39:18;3.90;;;1.80;;
3016;SDS011;1518;52.408;13.060;2023-02-27T08:42:09;1.93;;;1.60;;
3016;SDS011;1518;52.408;13.060;2023-02-27T08:44:57;2.40;;;1.70;;
3016;SDS011;1518;52.408;13.060;2023-02-27T08:47:45;4.73;;;1.60;;
3016;SDS011;1518;52.408;13.060;2023-02-27T08:50:33;4.40;;;1.60;;
3016;SDS011;1518;52.408;13.060;2023-02-27T08:53:21;2.77;;;1.20;;
3016;SDS011;1518;52.408;13.060;2023-02-27T08:56:11;2.70;;;1.73;;
3016;SDS011;1518;52.408;13.060;2023-02-27T08:58:59;4.50;;;1.40;;
3016;SDS011;1518;52.408;13.060;2023-02-27T09:01:48;4.38;;;1.23;;
3016;SDS011;1518;52.408;13.060;2023-02-27T09:04:36;2.57;;;1.40;;
3016;SDS011;1518;52.408;13.060;2023-02-27T09:07:24;3.73;;;1.40;;
3016;SDS011;1518;52.408;13.060;2023-02-27T09:10:12;2.33;;;1.37;;
3016;SDS011;1518;52.408;13.060;2023-02-27T09:13:01;2.00;;;1.30;;
3016;SDS011;1518;52.408;13.060;2023-02-27T09:15:50;2.03;;;1.30;;
3016;SDS011;1518;52.408;13.060;2023-02-27T09:18:38;1.65;;;1.55;;
3016;SDS011;1518;52.408;13.060;2023-02-27T09:21:26;2.08;;;1.50;;
3016;SDS011;1518;52.408;13.060;2023-02-27T09:24:15;4.00;;;1.83;;
3016;SDS011;1518;52.408;13.060;2023-02-27T09:27:06;3.17;;;1.35;;
3016;SDS011;1518;52.408;13.060;2023-02-27T09:29:55;3.25;;;1.73;;
3016;SDS011;1518;52.408;13.060;2023-02-27T09:32:44;5.50;;;2.45;;
3016;SDS011;1518;52.408;13.060;2023-02-27T09:35:32;2.63;;;1.48;;
3016;SDS011;1518;52.408;13.060;2023-02-27T09:38:21;2.45;;;1.63;;
3016;SDS011;1518;52.408;13.060;2023-02-27T09:41:19;2.13;;;1.45;;
3016;SDS011;1518;52.408;13.060;2023-02-27T09:44:24;1.48;;;1.25;;
3016;SDS011;1518;52.408;13.060;2023-02-27T09:47:34;1.40;;;1.27;;
3016;SDS011;1518;52.408;13.060;2023-02-27T09:50:28;1.92;;;1.40;;
3016;SDS011;1518;52.408;13.060;2023-02-27T09:53:24;7.25;;;1.80;;
3016;SDS011;1518;52.408;13.060;2023-02-27T09:56:19;3.22;;;1.95;;
3016;SDS011;1518;52.408;13.060;2023-02-27T09:59:12;8.77;;;1.63;;
3016;SDS011;1518;52.408;13.060;2023-02-27T10:02:12;5.68;;;1.95;;
3016;SDS011;1518;52.408;13.060;2023-02-27T10:05:12;4.07;;;1.60;;
3016;SDS011;1518;52.408;13.060;2023-02-27T10:08:11;6.13;;;1.70;;
3016;SDS011;1518;52.408;13.060;2023-02-27T10:11:08;4.15;;;1.90;;
3016;SDS011;1518;52.408;13.060;2023-02-27T10:14:02;4.53;;;1.58;;
3016;SDS011;1518;52.408;13.060;2023-02-27T10:16:54;4.47;;;1.88;;
3016;SDS011;1518;52.408;13.060;2023-02-27T10:19:44;5.60;;;1.70;;
3016;SDS011;1518;52.408;13.060;2023-02-27T10:22:37;4.50;;;2.15;;
3016;SDS011;1518;52.408;13.060;2023-02-27T10:25:29;4.80;;;1.55;;
3016;SDS011;1518;52.408;13.060;2023-02-27T10:28:25;6.95;;;1.48;;
3016;SDS011;1518;52.408;13.060;2023-02-27T10:31:15;6.10;;;1.50;;
3016;SDS011;1518;52.408;13.060;2023-02-27T10:34:07;2.90;;;1.60;;
3016;SDS011;1518;52.408;13.060;2023-02-27T10:37:02;6.07;;;1.63;;
3016;SDS011;1518;52.408;13.060;2023-02-27T10:39:54;3.25;;;1.77;;
3016;SDS011;1518;52.408;13.060;2023-02-27T10:42:44;7.28;;;1.80;;
3016;SDS011;1518;52.408;13.060;2023-02-27T10:45:32;1.55;;;1.40;;
3016;SDS011;1518;52.408;13.060;2023-02-27T10:48:23;4.40;;;1.60;;
3016;SDS011;1518;52.408;13.060;2023-02-27T10:51:18;1.45;;;1.33;;
3016;SDS011;1518;52.408;13.060;2023-02-27T10:54:17;3.85;;;1.58;;
3016;SDS011;1518;52.408;13.060;2023-02-27T10:57:18;2.10;;;1.50;;
3016;SDS011;1518;52.408;13.060;2023-02-27T11:00:21;2.85;;;1.30;;
3016;SDS011;1518;52.408;13.060;2023-02-27T11:03:17;2.45;;;1.23;;
3016;SDS011;1518;52.408;13.060;2023-02-27T11:06:08;3.72;;;1.30;;
3016;SDS011;1518;52.408;13.060;2023-02-27T11:09:08;5.65;;;1.30;;
3016;SDS011;1518;52.408;13.060;2023-02-27T11:12:16;4.03;;;1.45;;
3016;SDS011;1518;52.408;13.060;2023-02-27T11:15:20;3.75;;;1.40;;
3016;SDS011;1518;52.408;13.060;2023-02-27T11:18:18;3.70;;;1.73;;
3016;SDS011;1518;52.408;13.060;2023-02-27T11:21:13;2.33;;;1.48;;
3016;SDS011;1518;52.408;13.060;2023-02-27T11:24:16;2.83;;;1.83;;
3016;SDS011;1518;52.408;13.060;2023-02-27T11:27:16;2.58;;;1.70;;
3016;SDS011;1518;52.408;13.060;2023-02-27T11:30:18;3.03;;;1.40;;
3016;SDS011;1518;52.408;13.060;2023-02-27T11:33:14;2.58;;;1.58;;
3016;SDS011;1518;52.408;13.060;2023-02-27T11:36:05;2.80;;;1.40;;
3016;SDS011;1518;52.408;13.060;2023-02-27T11:38:54;6.45;;;1.63;;
3016;SDS011;1518;52.408;13.060;2023-02-27T11:41:43;2.95;;;2.08;;
3016;SDS011;1518;52.408;13.060;2023-02-27T11:44:31;2.55;;;1.55;;
3016;SDS011;1518;52.408;13.060;2023-02-27T11:47:37;4.57;;;1.17;;
3016;SDS011;1518;52.408;13.060;2023-02-27T11:50:36;2.92;;;1.50;;
3016;SDS011;1518;52.408;13.060;2023-02-27T11:53:36;2.90;;;1.20;;
3016;SDS011;1518;52.408;13.060;2023-02-27T11:56:35;1.60;;;1.10;;
3016;SDS011;1518;52.408;13.060;2023-02-27T11:59:26;4.82;;;1.33;;
3016;SDS011;1518;52.408;13.060;2023-02-27T12:02:28;2.22;;;1.20;;
3016;SDS011;1518;52.408;13.060;2023-02-27T12:05:26;3.10;;;1.40;;
3016;SDS011;1518;52.408;13.060;2023-02-27T12:08:18;4.57;;;1.40;;
3016;SDS011;1518;52.408;13.060;2023-02-27T12:11:19;2.20;;;1.23;;
3016;SDS011;1518;52.408;13.060;2023-02-27T12:14:14;4.22;;;1.33;;
3016;SDS011;1518;52.408;13.060;2023-02-27T12:17:07;1.50;;;0.90;;
3016;SDS011;1518;52.408;13.060;2023-02-27T12:20:08;3.75;;;1.50;;
3016;SDS011;1518;52.408;13.060;2023-02-27T12:23:13;4.38;;;1.15;;
3016;SDS011;1518;52.408;13.060;2023-02-27T12:26:05;2.80;;;1.27;;
3016;SDS011;1518;52.408;13.060;2023-02-27T12:29:01;1.30;;;1.20;;
3016;SDS011;1518;52.408;13.060;2023-02-27T12:31:56;5.28;;;1.30;;
3016;SDS011;1518;52.408;13.060;2023-02-27T12:34:48;6.32;;;1.70;;
3016;SDS011;1518;52.408;13.060;2023-02-27T12:37:41;2.47;;;1.13;;
3016;SDS011;1518;52.408;13.060;2023-02-27T12:40:33;3.05;;;1.10;;
3016;SDS011;1518;52.408;13.060;2023-02-27T12:43:24;4.78;;;2.17;;
3016;SDS011;1518;52.408;13.060;2023-02-27T12:46:22;2.72;;;1.75;;
3016;SDS011;1518;52.408;13.060;2023-02-27T12:49:21;1.73;;;1.27;;
3016;SDS011;1518;52.408;13.060;2023-02-27T12:52:20;4.75;;;1.20;;
3016;SDS011;1518;52.408;13.060;2023-02-27T12:55:15;3.05;;;1.60;;
3016;SDS011;1518;52.408;13.060;2023-02-27T12:58:17;6.53;;;1.90;;
3016;SDS011;1518;52.408;13.060;2023-02-27T13:01:22;2.83;;;1.70;;
3016;SDS011;1518;52.408;13.060;2023-02-27T13:04:23;3.90;;;1.15;;
3016;SDS011;1518;52.408;13.060;2023-02-27T13:07:20;2.03;;;1.10;;
3016;SDS011;1518;52.408;13.060;2023-02-27T13:10:14;1.85;;;1.10;;
3016;SDS011;1518;52.408;13.060;2023-02-27T13:13:07;2.38;;;1.30;;
3016;SDS011;1518;52.408;13.060;2023-02-27T13:16:04;4.70;;;1.38;;
3016;SDS011;1518;52.408;13.060;2023-02-27T13:18:58;1.75;;;1.00;;
3016;SDS011;1518;52.408;13.060;2023-02-27T13:21:53;4.03;;;1.50;;
3016;SDS011;1518;52.408;13.060;2023-02-27T13:24:43;6.60;;;1.48;;
3016;SDS011;1518;52.408;13.060;2023-02-27T13:27:36;1.10;;;0.95;;
3016;SDS011;1518;52.408;13.060;2023-02-27T13:30:27;5.60;;;1.10;;
3016;SDS011;1518;52.408;13.060;2023-02-27T13:33:21;1.73;;;0.98;;
3016;SDS011;1518;52.408;13.060;2023-02-27T13:36:16;3.00;;;1.10;;
3016;SDS011;1518;52.408;13.060;2023-02-27T13:45:55;1.38;;;1.08;;
3016;SDS011;1518;52.408;13.060;2023-02-27T13:48:46;0.73;;;0.70;;
3016;SDS011;1518;52.408;13.060;2023-02-27T13:51:42;0.95;;;0.85;;
3016;SDS011;1518;52.408;13.060;2023-02-27T13:54:33;1.08;;;0.98;;
3016;SDS011;1518;52.408;13.060;2023-02-27T13:57:26;3.42;;;1.15;;
3016;SDS011;1518;52.408;13.060;2023-02-27T14:00:17;2.47;;;1.00;;
3016;SDS011;1518;52.408;13.060;2023-02-27T14:03:16;4.70;;;0.95;;
3016;SDS011;1518;52.408;13.060;2023-02-27T14:06:08;1.38;;;0.95;;
3016;SDS011;1518;52.408;13.060;2023-02-27T14:08:58;1.95;;;0.80;;
3016;SDS011;1518;52.408;13.060;2023-02-27T14:12:00;1.25;;;0.80;;
3016;SDS011;1518;52.408;13.060;2023-02-27T14:14:51;2.03;;;1.00;;
3016;SDS011;1518;52.408;13.060;2023-02-27T14:17:40;4.55;;;1.23;;
3016;SDS011;1518;52.408;13.060;2023-02-27T14:20:46;0.75;;;0.75;;
3016;SDS011;1518;52.408;13.060;2023-02-27T14:23:37;0.80;;;0.80;;
3016;SDS011;1518;52.408;13.060;2023-02-27T14:26:25;1.10;;;0.90;;
3016;SDS011;1518;52.408;13.060;2023-02-27T14:29:15;2.05;;;0.80;;
3016;SDS011;1518;52.408;13.060;2023-02-27T14:32:06;1.95;;;1.17;;
3016;SDS011;1518;52.408;13.060;2023-02-27T14:34:54;0.75;;;0.70;;
3016;SDS011;1518;52.408;13.060;2023-02-27T14:37:42;1.02;;;0.80;;
3016;SDS011;1518;52.408;13.060;2023-02-27T14:40:33;4.20;;;0.90;;
3016;SDS011;1518;52.408;13.060;2023-02-27T14:43:28;1.40;;;0.80;;
3016;SDS011;1518;52.408;13.060;2023-02-27T14:46:24;0.90;;;0.75;;
3016;SDS011;1518;52.408;13.060;2023-02-27T14:49:16;1.75;;;0.98;;
3016;SDS011;1518;52.408;13.060;2023-02-27T14:52:10;0.88;;;0.77;;
3016;SDS011;1518;52.408;13.060;2023-02-27T14:55:11;0.70;;;0.70;;
3016;SDS011;1518;52.408;13.060;2023-02-27T14:58:10;0.80;;;0.80;;
3016;SDS011;1518;52.408;13.060;2023-02-27T15:01:04;1.27;;;0.80;;
3016;SDS011;1518;52.408;13.060;2023-02-27T15:03:55;1.17;;;0.80;;
3016;SDS011;1518;52.408;13.060;2023-02-27T15:06:45;1.90;;;0.77;;
3016;SDS011;1518;52.408;13.060;2023-02-27T15:09:36;0.90;;;0.90;;
3016;SDS011;1518;52.408;13.060;2023-02-27T15:12:28;1.63;;;0.80;;
3016;SDS011;1518;52.408;13.060;2023-02-27T15:15:19;1.02;;;0.80;;
3016;SDS011;1518;52.408;13.060;2023-02-27T15:18:10;4.47;;;0.82;;
3016;SDS011;1518;52.408;13.060;2023-02-27T15:21:00;1.00;;;0.80;;
3016;SDS011;1518;52.408;13.060;2023-02-27T15:23:55;2.50;;;0.85;;
3016;SDS011;1518;52.408;13.060;2023-02-27T15:26:44;4.40;;;0.80;;
3016;SDS011;1518;52.408;13.060;2023-02-27T15:29:38;3.67;;;0.90;;
3016;SDS011;1518;52.408;13.060;2023-02-27T15:32:30;2.70;;;0.73;;
3016;SDS011;1518;52.408;13.060;2023-02-27T15:35:21;1.38;;;0.82;;
3016;SDS011;1518;52.408;13.060;2023-02-27T15:38:22;1.75;;;1.15;;
3016;SDS011;1518;52.408;13.060;2023-02-27T15:41:11;5.18;;;1.20;;
3016;SDS011;1518;52.408;13.060;2023-02-27T15:44:00;3.05;;;0.80;;
3016;SDS011;1518;52.408;13.060;2023-02-27T15:46:49;1.48;;;0.80;;
3016;SDS011;1518;52.408;13.060;2023-02-27T15:49:39;1.20;;;0.70;;
3016;SDS011;1518;52.408;13.060;2023-02-27T15:52:30;3.42;;;1.15;;
3016;SDS011;1518;52.408;13.060;2023-02-27T15:55:28;1.50;;;0.70;;
3016;SDS011;1518;52.408;13.060;2023-02-27T15:58:20;2.38;;;1.08;;
3016;SDS011;1518;52.408;13.060;2023-02-27T16:01:12;3.50;;;1.20;;
3016;SDS011;1518;52.408;13.060;2023-02-27T16:04:04;1.35;;;1.00;;
3016;SDS011;1518;52.408;13.060;2023-02-27T16:07:03;1.00;;;0.80;;
3016;SDS011;1518;52.408;13.060;2023-02-27T16:09:54;1.27;;;0.98;;
3016;SDS011;1518;52.408;13.060;2023-02-27T16:12:46;0.80;;;0.80;;
3016;SDS011;1518;52.408;13.060;2023-02-27T16:15:35;3.00;;;0.85;;
3016;SDS011;1518;52.408;13.060;2023-02-27T16:18:27;1.05;;;0.85;;
3016;SDS011;1518;52.408;13.060;2023-02-27T16:21:18;2.75;;;0.93;;
3016;SDS011;1518;52.408;13.060;2023-02-27T16:24:18;0.85;;;0.70;;
3016;SDS011;1518;52.408;13.060;2023-02-27T16:27:13;0.90;;;0.80;;
3016;SDS011;1518;52.408;13.060;2023-02-27T16:30:09;1.38;;;0.80;;
3016;SDS011;1518;52.408;13.060;2023-02-27T16:32:58;1.60;;;1.10;;
3016;SDS011;1518;52.408;13.060;2023-02-27T16:35:48;2.97;;;0.80;;
3016;SDS011;1518;52.408;13.060;2023-02-27T16:38:36;1.20;;;1.00;;
3016;SDS011;1518;52.408;13.060;2023-02-27T16:41:26;2.25;;;1.00;;
3016;SDS011;1518;52.408;13.060;2023-02-27T16:44:15;1.00;;;0.90;;
3016;SDS011;1518;52.408;13.060;2023-02-27T16:47:04;1.63;;;0.90;;
3016;SDS011;1518;52.408;13.060;2023-02-27T16:49:52;1.17;;;1.08;;
3016;SDS011;1518;52.408;13.060;2023-02-27T16:52:40;2.70;;;0.80;;
3016;SDS011;1518;52.408;13.060;2023-02-27T16:55:29;1.55;;;0.90;;
3016;SDS011;1518;52.408;13.060;2023-02-27T16:58:20;1.60;;;0.90;;
3016;SDS011;1518;52.408;13.060;2023-02-27T17:01:08;0.60;;;0.60;;
3016;SDS011;1518;52.408;13.060;2023-02-27T17:03:59;0.85;;;0.80;;
3016;SDS011;1518;52.408;13.060;2023-02-27T17:06:47;10.13;;;1.33;;
3016;SDS011;1518;52.408;13.060;2023-02-27T17:09:35;2.10;;;0.93;;
3016;SDS011;1518;52.408;13.060;2023-02-27T17:12:23;1.10;;;0.93;;
3016;SDS011;1518;52.408;13.060;2023-02-27T17:15:12;0.93;;;0.93;;
3016;SDS011;1518;52.408;13.060;2023-02-27T17:18:00;1.35;;;1.05;;
3016;SDS011;1518;52.408;13.060;2023-02-27T17:20:48;1.52;;;0.98;;
3016;SDS011;1518;52.408;13.060;2023-02-27T17:23:37;0.88;;;0.82;;
3016;SDS011;1518;52.408;13.060;2023-02-27T17:26:25;0.93;;;0.90;;
3016;SDS011;1518;52.408;13.060;2023-02-27T17:29:14;3.22;;;1.40;;
3016;SDS011;1518;52.408;13.060;2023-02-27T17:32:04;2.72;;;1.23;;
3016;SDS011;1518;52.408;13.060;2023-02-27T17:34:53;1.30;;;1.00;;
3016;SDS011;1518;52.408;13.060;2023-02-27T17:37:41;0.98;;;0.95;;
3016;SDS011;1518;52.408;13.060;2023-02-27T17:40:29;4.25;;;1.23;;
3016;SDS011;1518;52.408;13.060;2023-02-27T17:43:17;1.35;;;1.23;;
3016;SDS011;1518;52.408;13.060;2023-02-27T17:46:06;1.58;;;1.48;;
3016;SDS011;1518;52.408;13.060;2023-02-27T17:48:56;2.03;;;1.45;;
3016;SDS011;1518;52.408;13.060;2023-02-27T17:51:46;2.50;;;1.70;;
3016;SDS011;1518;52.408;13.060;2023-02-27T17:54:35;1.50;;;1.40;;